Time;durP1;ratioP1;P1;durP2;ratioP2;P2;SDS_P1;SDS_P2;PMS_P1;PMS_P2;Temp;Humidity;BMP_temperature;BMP_pressure;BME280_temperature;BME280_humidity;BME280_pressure;Samples;Min_cycle;Max_cycle;Signal;HPM_P1;HPM_P2
2021/12/10 00:01:54;;;;;;;62.67;38.03;;;1.00;99.90;;;;;;5022928;28;20029;-72
2021/12/10 00:04:29;;;;;;;61.53;38.28;;;1.00;99.90;;;;;;5023527;28;20104;-73
2021/12/10 00:06:57;;;;;;;56.47;35.80;;;1.00;99.90;;;;;;5021839;28;20119;-73
2021/12/10 00:09:31;;;;;;;56.85;37.13;;;1.00;99.90;;;;;;5023718;28;20025;-73
2021/12/10 00:12:09;;;;;;;67.28;39.47;;;1.00;99.90;;;;;;5020576;28;20029;-73
2021/12/10 00:14:36;;;;;;;54.97;35.05;;;1.00;99.90;;;;;;5022431;28;20021;-72
2021/12/10 00:17:04;;;;;;;61.05;38.22;;;1.00;99.90;;;;;;5023546;28;20022;-71
2021/12/10 00:21:58;;;;;;;58.33;37.30;;;1.00;99.90;;;;;;5026421;28;20472;-72
2021/12/10 00:24:26;;;;;;;67.95;39.80;;;1.00;99.90;;;;;;5022101;28;20383;-72
2021/12/10 00:26:52;;;;;;;56.15;36.65;;;0.90;99.90;;;;;;5022540;28;20018;-72
2021/12/10 00:29:19;;;;;;;61.88;39.30;;;1.00;99.90;;;;;;5023741;28;20088;-73
2021/12/10 00:31:50;;;;;;;64.45;40.08;;;1.00;99.90;;;;;;5021455;28;20496;-71
2021/12/10 00:34:22;;;;;;;69.85;42.45;;;1.00;99.90;;;;;;5024158;28;20077;-71
2021/12/10 00:36:51;;;;;;;57.70;38.20;;;1.00;99.90;;;;;;5027799;28;20025;-71
2021/12/10 00:39:21;;;;;;;61.38;38.60;;;0.90;99.90;;;;;;5019881;28;20364;-72
2021/12/10 00:41:47;;;;;;;67.05;39.42;;;1.00;99.90;;;;;;5026719;28;20104;-72
2021/12/10 00:44:13;;;;;;;60.47;38.15;;;1.10;99.90;;;;;;5019679;28;20575;-72
2021/12/10 00:46:39;;;;;;;61.35;39.03;;;1.00;99.90;;;;;;5028121;28;20052;-71
2021/12/10 00:49:07;;;;;;;68.95;42.25;;;1.00;99.90;;;;;;5011888;28;20480;-71
2021/12/10 00:51:33;;;;;;;78.38;46.13;;;1.00;99.90;;;;;;5023767;28;20028;-72
2021/12/10 00:53:59;;;;;;;67.80;40.08;;;1.00;99.90;;;;;;5018218;28;20024;-72
2021/12/10 00:56:24;;;;;;;67.03;42.75;;;0.90;99.90;;;;;;5026743;28;20092;-73
2021/12/10 00:58:50;;;;;;;61.50;39.35;;;0.90;99.90;;;;;;5023143;28;20060;-71
2021/12/10 01:01:26;;;;;;;71.72;43.08;;;1.00;99.90;;;;;;5023206;28;20033;-71
2021/12/10 01:04:02;;;;;;;77.00;44.75;;;1.00;99.90;;;;;;5020811;28;20198;-72
2021/12/10 01:06:28;;;;;;;68.55;40.05;;;1.00;99.90;;;;;;5023265;28;20088;-71
2021/12/10 01:08:59;;;;;;;80.03;44.83;;;1.00;99.90;;;;;;5023141;28;20106;-72
2021/12/10 01:11:30;;;;;;;60.58;39.85;;;1.10;99.90;;;;;;5022995;28;20034;-73
2021/12/10 01:14:10;;;;;;;61.95;38.88;;;1.00;99.90;;;;;;5022464;28;20104;-71
2021/12/10 01:27:34;;;;;;;63.80;41.20;;;1.10;99.90;;;;;;5022108;28;20009;-73
2021/12/10 01:30:06;;;;;;;62.92;40.80;;;1.10;99.90;;;;;;5013971;28;20044;-73
2021/12/10 01:32:36;;;;;;;64.85;41.72;;;1.10;99.90;;;;;;5023034;28;20033;-73
2021/12/10 01:35:08;;;;;;;60.70;40.10;;;1.10;99.90;;;;;;5015274;28;20022;-73
2021/12/10 01:37:34;;;;;;;63.22;39.97;;;1.10;99.90;;;;;;5025967;28;20388;-73
2021/12/10 01:40:00;;;;;;;65.00;40.95;;;1.10;99.90;;;;;;5022935;28;20025;-74
2021/12/10 01:44:54;;;;;;;71.63;43.03;;;1.20;99.90;;;;;;5025270;28;20037;-72
2021/12/10 01:47:29;;;;;;;66.53;40.38;;;1.10;99.90;;;;;;5025235;28;20018;-73
2021/12/10 01:49:55;;;;;;;65.05;40.78;;;1.10;99.90;;;;;;5029318;28;20025;-73
2021/12/10 01:52:21;;;;;;;58.05;39.30;;;1.10;99.90;;;;;;5022795;28;20026;-73
2021/12/10 01:54:52;;;;;;;69.40;43.40;;;1.10;99.90;;;;;;5028743;28;20101;-73
2021/12/10 01:57:20;;;;;;;69.07;42.03;;;1.10;99.90;;;;;;5021454;28;20025;-72
2021/12/10 01:59:47;;;;;;;65.43;41.67;;;1.10;99.90;;;;;;5027483;28;20029;-72
2021/12/10 02:02:17;;;;;;;59.35;39.75;;;1.10;99.90;;;;;;5019121;28;20021;-73
2021/12/10 02:04:45;;;;;;;65.07;41.60;;;1.10;99.90;;;;;;5023235;28;20021;-72
2021/12/10 02:07:13;;;;;;;66.30;41.60;;;1.10;99.90;;;;;;5025342;28;20018;-72
2021/12/10 02:09:39;;;;;;;55.28;36.80;;;1.10;99.90;;;;;;5024353;28;20479;-73
2021/12/10 02:12:06;;;;;;;64.30;41.13;;;1.10;99.90;;;;;;5014252;28;20053;-72
2021/12/10 02:14:32;;;;;;;67.82;41.65;;;1.10;99.90;;;;;;5023131;28;20493;-72
2021/12/10 02:16:59;;;;;;;60.25;39.60;;;1.10;99.90;;;;;;5025449;28;20022;-72
2021/12/10 02:19:26;;;;;;;67.28;43.10;;;1.10;99.90;;;;;;5023589;28;20013;-73
2021/12/10 02:21:51;;;;;;;56.72;38.42;;;1.10;99.90;;;;;;5024478;28;20034;-73
2021/12/10 02:24:18;;;;;;;60.63;38.53;;;1.10;99.90;;;;;;5024760;28;20022;-73
2021/12/10 02:26:52;;;;;;;61.80;39.85;;;1.10;99.90;;;;;;5022333;28;20113;-74
2021/12/10 02:29:22;;;;;;;56.30;37.63;;;1.30;99.90;;;;;;5027004;28;20495;-74
2021/12/10 02:31:48;;;;;;;55.88;35.67;;;1.20;99.90;;;;;;5022545;28;20026;-74
2021/12/10 02:34:14;;;;;;;58.78;38.78;;;1.10;99.90;;;;;;5026917;28;20498;-74
2021/12/10 02:36:42;;;;;;;63.63;38.25;;;1.20;99.90;;;;;;5029606;28;20042;-74
2021/12/10 02:39:10;;;;;;;50.47;35.20;;;1.10;99.90;;;;;;5021234;28;20025;-74
2021/12/10 02:41:37;;;;;;;53.40;36.40;;;1.10;99.90;;;;;;5019378;28;20550;-74
2021/12/10 02:44:04;;;;;;;55.10;35.47;;;1.20;99.90;;;;;;5024647;28;20026;-73
2021/12/10 02:46:30;;;;;;;56.45;35.47;;;1.20;99.90;;;;;;5025271;28;20033;-73
2021/12/10 02:48:56;;;;;;;62.58;38.38;;;1.20;99.90;;;;;;5024603;28;20085;-73
2021/12/10 02:51:22;;;;;;;60.67;36.28;;;1.20;99.90;;;;;;5026129;28;20022;-73
2021/12/10 02:53:48;;;;;;;62.45;38.40;;;1.20;99.90;;;;;;5023046;28;20057;-72
2021/12/10 02:56:17;;;;;;;50.95;35.17;;;1.30;99.90;;;;;;5024887;28;20057;-72
2021/12/10 02:58:47;;;;;;;49.58;34.90;;;1.20;99.90;;;;;;5020595;28;20026;-73
2021/12/10 03:01:20;;;;;;;56.53;37.17;;;1.20;99.90;;;;;;5024745;28;20091;-73
2021/12/10 03:03:46;;;;;;;57.55;36.85;;;1.10;99.90;;;;;;5022628;28;20651;-71
2021/12/10 03:06:16;;;;;;;56.70;36.33;;;1.10;99.90;;;;;;5030547;28;20021;-73
2021/12/10 03:08:45;;;;;;;53.67;36.15;;;1.20;99.90;;;;;;5013686;28;20026;-73
2021/12/10 03:11:13;;;;;;;58.97;37.08;;;1.20;99.90;;;;;;5013132;28;20480;-74
2021/12/10 03:13:39;;;;;;;54.40;35.92;;;1.20;99.90;;;;;;5013218;28;20392;-73
2021/12/10 03:16:06;;;;;;;59.65;36.28;;;1.20;99.90;;;;;;5026727;28;20044;-73
2021/12/10 03:18:33;;;;;;;49.70;35.13;;;1.10;99.90;;;;;;5032874;28;20049;-74
2021/12/10 03:20:59;;;;;;;52.60;33.47;;;1.20;99.90;;;;;;5032807;28;20031;-74
2021/12/10 03:23:25;;;;;;;53.13;35.25;;;1.20;99.90;;;;;;5032734;28;20021;-74
2021/12/10 03:25:50;;;;;;;50.83;34.10;;;1.20;99.90;;;;;;5032483;28;20075;-73
2021/12/10 03:28:16;;;;;;;47.15;32.35;;;1.20;99.90;;;;;;5025810;28;20021;-72
2021/12/10 03:30:47;;;;;;;42.63;30.92;;;1.20;99.90;;;;;;5011544;28;20022;-72
2021/12/10 03:33:12;;;;;;;47.03;32.97;;;1.20;99.90;;;;;;5012940;28;20109;-72
2021/12/10 03:35:42;;;;;;;49.03;33.97;;;1.20;99.90;;;;;;5012522;28;20109;-75
2021/12/10 03:38:15;;;;;;;46.60;32.15;;;1.20;99.90;;;;;;5011580;28;20369;-75
2021/12/10 03:40:41;;;;;;;42.63;30.27;;;1.20;99.90;;;;;;5012536;28;20064;-73
2021/12/10 03:43:08;;;;;;;45.90;31.48;;;1.20;99.90;;;;;;5012748;28;20113;-74
2021/12/10 03:45:38;;;;;;;49.08;32.42;;;1.20;99.90;;;;;;5012350;28;20026;-75
2021/12/10 03:48:09;;;;;;;48.67;29.48;;;1.20;99.90;;;;;;5012541;28;20392;-74
2021/12/10 03:50:35;;;;;;;41.53;29.13;;;1.20;99.90;;;;;;5010797;28;20026;-73
2021/12/10 03:53:01;;;;;;;43.65;27.33;;;1.20;99.90;;;;;;5011426;28;20026;-75
2021/12/10 03:55:28;;;;;;;38.28;26.77;;;1.20;99.90;;;;;;5012302;28;20033;-75
2021/12/10 03:57:55;;;;;;;39.30;26.65;;;1.20;99.90;;;;;;5022540;28;20160;-73
2021/12/10 04:00:24;;;;;;;39.95;28.33;;;1.20;99.90;;;;;;5031872;28;20076;-71
2021/12/10 04:02:50;;;;;;;35.50;24.55;;;1.20;99.90;;;;;;5032160;28;20021;-73
2021/12/10 04:05:16;;;;;;;32.15;24.35;;;1.20;99.90;;;;;;5031798;28;20029;-73
2021/12/10 04:07:43;;;;;;;35.08;23.85;;;1.20;99.90;;;;;;5032061;28;20034;-73
2021/12/10 04:10:12;;;;;;;30.23;22.52;;;1.20;99.90;;;;;;5031909;28;20025;-73
2021/12/10 04:12:38;;;;;;;31.48;21.02;;;1.30;99.90;;;;;;5031882;28;20065;-72
2021/12/10 04:15:06;;;;;;;33.65;24.23;;;1.30;99.90;;;;;;5031669;28;20056;-73
2021/12/10 04:17:33;;;;;;;32.35;24.10;;;1.30;99.90;;;;;;5031889;28;20041;-73
2021/12/10 04:19:58;;;;;;;39.28;24.63;;;1.30;99.90;;;;;;5031709;28;20026;-72
2021/12/10 04:22:26;;;;;;;37.28;24.80;;;1.30;99.90;;;;;;5031824;28;20344;-72
2021/12/10 04:24:52;;;;;;;36.58;23.65;;;1.30;99.90;;;;;;5031574;28;20442;-72
2021/12/10 04:27:18;;;;;;;29.83;22.63;;;1.30;99.90;;;;;;5031883;28;20048;-73
2021/12/10 04:29:45;;;;;;;29.20;22.15;;;1.30;99.90;;;;;;5031665;28;20431;-71
2021/12/10 04:32:12;;;;;;;29.70;22.15;;;1.30;99.90;;;;;;5030352;28;20057;-71
2021/12/10 04:34:39;;;;;;;28.25;21.00;;;1.30;99.90;;;;;;5020466;28;20026;-69
2021/12/10 04:37:07;;;;;;;29.00;21.15;;;1.30;99.90;;;;;;5011923;28;20484;-72
2021/12/10 04:39:34;;;;;;;31.50;20.27;;;1.30;99.90;;;;;;5011864;28;20544;-72
2021/12/10 04:42:00;;;;;;;27.17;19.30;;;1.30;99.90;;;;;;5011814;28;20030;-74
2021/12/10 04:44:26;;;;;;;31.17;20.55;;;1.30;99.90;;;;;;5010344;28;20034;-73
2021/12/10 04:46:52;;;;;;;23.05;18.80;;;1.40;99.90;;;;;;5011924;28;20018;-74
2021/12/10 04:49:17;;;;;;;29.83;20.13;;;1.30;99.90;;;;;;5011868;28;20026;-75
2021/12/10 04:51:51;;;;;;;25.35;19.92;;;1.30;99.90;;;;;;5011770;28;20103;-74
2021/12/10 04:54:19;;;;;;;29.02;20.05;;;1.40;99.90;;;;;;5011650;28;20057;-73
2021/12/10 04:56:45;;;;;;;29.02;20.35;;;1.30;99.90;;;;;;5012762;28;20493;-73
2021/12/10 04:59:16;;;;;;;30.10;20.27;;;1.30;99.90;;;;;;5030024;28;20507;-72
2021/12/10 05:01:42;;;;;;;29.73;20.83;;;1.30;99.90;;;;;;5031225;28;20028;-71
2021/12/10 05:04:09;;;;;;;25.83;20.45;;;1.30;99.90;;;;;;5034006;28;20021;-72
2021/12/10 05:06:37;;;;;;;30.45;20.70;;;1.30;99.90;;;;;;5035316;28;20018;-72
2021/12/10 05:09:06;;;;;;;30.17;20.38;;;1.30;99.90;;;;;;5035320;28;20025;-72
2021/12/10 05:11:31;;;;;;;28.58;20.00;;;1.40;99.90;;;;;;5035162;28;20472;-72
2021/12/10 05:13:57;;;;;;;24.17;18.85;;;1.40;99.90;;;;;;5035053;28;20126;-72
2021/12/10 05:16:26;;;;;;;24.85;19.25;;;1.30;99.90;;;;;;5035232;28;20535;-74
2021/12/10 05:18:58;;;;;;;27.08;18.60;;;1.40;99.90;;;;;;5035168;28;20108;-73
2021/12/10 05:21:25;;;;;;;28.05;18.50;;;1.40;99.90;;;;;;5021861;28;20033;-73
2021/12/10 05:23:51;;;;;;;25.10;18.95;;;1.30;99.90;;;;;;5025332;28;20022;-75
2021/12/10 05:26:17;;;;;;;28.85;20.08;;;1.30;99.90;;;;;;5028553;28;20097;-72
2021/12/10 05:28:43;;;;;;;50.25;33.35;;;1.30;99.90;;;;;;5015184;28;20544;-71
2021/12/10 05:31:09;;;;;;;32.45;20.65;;;1.30;99.90;;;;;;5018458;28;20029;-72
2021/12/10 05:33:35;;;;;;;25.20;16.08;;;1.30;99.90;;;;;;5031504;28;20052;-71
2021/12/10 05:36:02;;;;;;;24.42;16.42;;;1.20;99.90;;;;;;5014918;28;20476;-72
2021/12/10 05:38:29;;;;;;;26.20;16.85;;;1.10;99.90;;;;;;5025920;28;20018;-72
2021/12/10 05:40:55;;;;;;;22.02;14.98;;;1.10;99.90;;;;;;5032589;28;20108;-72
2021/12/10 05:43:21;;;;;;;19.65;14.50;;;1.00;99.90;;;;;;5013509;28;20568;-71
2021/12/10 05:45:48;;;;;;;19.80;13.52;;;1.00;99.90;;;;;;5015145;28;20274;-73
2021/12/10 05:48:16;;;;;;;17.35;13.50;;;1.00;99.90;;;;;;5014923;28;20065;-73
2021/12/10 05:50:42;;;;;;;18.77;13.18;;;1.00;99.90;;;;;;5013415;28;20052;-73
2021/12/10 05:53:08;;;;;;;21.63;13.73;;;1.00;99.90;;;;;;5014951;28;20029;-74
2021/12/10 05:55:35;;;;;;;18.98;12.63;;;1.00;99.90;;;;;;5014479;28;20524;-73
2021/12/10 05:58:00;;;;;;;19.10;12.52;;;1.00;99.90;;;;;;5014737;28;20029;-73
2021/12/10 06:00:33;;;;;;;26.13;15.77;;;1.10;99.90;;;;;;5032021;28;20510;-72
2021/12/10 06:02:59;;;;;;;20.70;15.40;;;1.10;99.90;;;;;;5034426;28;20030;-73
2021/12/10 06:05:26;;;;;;;26.88;19.38;;;1.00;99.90;;;;;;5034192;28;20018;-74
2021/12/10 06:07:52;;;;;;;20.10;16.00;;;1.00;99.90;;;;;;5033022;28;20128;-73
2021/12/10 06:10:20;;;;;;;23.70;16.67;;;1.00;99.90;;;;;;5034084;28;20103;-73
2021/12/10 06:12:47;;;;;;;21.33;14.52;;;1.00;99.90;;;;;;5034303;28;20021;-73
2021/12/10 06:15:15;;;;;;;21.35;13.80;;;1.00;99.90;;;;;;5032384;28;20032;-72
2021/12/10 06:17:42;;;;;;;20.42;14.70;;;1.00;99.90;;;;;;5034196;28;20125;-73
2021/12/10 06:20:10;;;;;;;20.88;14.40;;;1.10;99.90;;;;;;5014795;28;20117;-74
2021/12/10 06:22:36;;;;;;;19.77;15.05;;;1.00;99.90;;;;;;5027408;28;20048;-74
2021/12/10 06:25:04;;;;;;;20.05;15.45;;;1.10;99.90;;;;;;5014259;28;20096;-75
2021/12/10 06:27:29;;;;;;;21.67;15.10;;;1.00;99.90;;;;;;5014249;28;20022;-74
2021/12/10 06:29:55;;;;;;;22.65;15.48;;;1.10;99.90;;;;;;5033789;28;20033;-73
2021/12/10 06:32:22;;;;;;;22.63;16.75;;;1.10;99.90;;;;;;5033946;28;20037;-73
2021/12/10 06:34:47;;;;;;;22.83;16.08;;;1.10;99.90;;;;;;5014326;28;20026;-73
2021/12/10 06:37:13;;;;;;;22.90;16.02;;;1.10;99.90;;;;;;5027431;28;20029;-74
2021/12/10 06:39:38;;;;;;;24.90;17.10;;;1.00;99.90;;;;;;5014070;28;20017;-73
2021/12/10 06:42:04;;;;;;;25.10;17.02;;;1.00;99.90;;;;;;5026287;28;20083;-73
2021/12/10 06:44:30;;;;;;;21.08;15.63;;;0.90;99.90;;;;;;5026507;28;20033;-75
2021/12/10 06:46:55;;;;;;;20.63;14.73;;;0.90;99.90;;;;;;5012823;28;20416;-74
2021/12/10 06:49:21;;;;;;;19.85;15.48;;;0.90;99.90;;;;;;5033676;28;20025;-73
2021/12/10 06:51:47;;;;;;;20.40;15.57;;;0.80;99.90;;;;;;5033126;28;20029;-73
2021/12/10 06:54:14;;;;;;;26.17;16.83;;;0.80;99.90;;;;;;5013777;28;20048;-73
2021/12/10 06:56:40;;;;;;;25.42;18.27;;;0.90;99.90;;;;;;5013703;28;20025;-74
2021/12/10 06:59:07;;;;;;;25.30;17.65;;;0.70;99.90;;;;;;5020817;28;20056;-74
2021/12/10 07:01:40;;;;;;;26.52;16.50;;;0.70;99.90;;;;;;5032509;28;20361;-73
2021/12/10 07:04:11;;;;;;;24.83;16.92;;;0.60;99.90;;;;;;5013517;28;20033;-74
2021/12/10 07:06:38;;;;;;;23.38;16.65;;;0.60;99.90;;;;;;5026802;28;20049;-73
2021/12/10 07:09:10;;;;;;;24.33;17.00;;;0.60;99.90;;;;;;5013573;28;20093;-73
2021/12/10 07:11:36;;;;;;;23.70;17.08;;;0.60;99.90;;;;;;5011992;28;20057;-74
2021/12/10 07:14:02;;;;;;;26.73;18.08;;;0.60;99.90;;;;;;5011831;28;20030;-74
2021/12/10 07:16:29;;;;;;;26.80;19.20;;;0.50;99.90;;;;;;5016853;28;20612;-74
2021/12/10 07:18:57;;;;;;;28.77;20.13;;;0.50;99.90;;;;;;5033070;28;20030;-73
2021/12/10 07:21:22;;;;;;;36.10;27.67;;;0.50;99.90;;;;;;5032833;28;20400;-73
2021/12/10 07:23:49;;;;;;;29.08;21.05;;;0.50;99.90;;;;;;5031486;28;20025;-74
2021/12/10 07:26:15;;;;;;;27.27;20.10;;;0.50;99.90;;;;;;5014998;28;20485;-73
2021/12/10 07:28:41;;;;;;;26.05;19.80;;;0.50;99.90;;;;;;5013140;28;20057;-72
2021/12/10 07:31:08;;;;;;;26.30;18.77;;;0.50;99.90;;;;;;5016032;28;20028;-72
2021/12/10 07:33:34;;;;;;;23.08;18.77;;;0.40;99.90;;;;;;5030513;28;20034;-72
2021/12/10 07:36:01;;;;;;;26.95;18.95;;;0.50;99.90;;;;;;5017215;28;20116;-73
2021/12/10 07:38:27;;;;;;;25.33;19.05;;;0.40;99.90;;;;;;5032604;28;20025;-72
2021/12/10 07:40:53;;;;;;;28.95;20.75;;;0.50;99.90;;;;;;5015861;28;20029;-72
2021/12/10 07:43:20;;;;;;;26.80;21.33;;;0.40;99.90;;;;;;5012810;28;20037;-72
2021/12/10 07:45:49;;;;;;;24.65;19.35;;;0.40;99.90;;;;;;5030119;28;20029;-72
2021/12/10 07:48:19;;;;;;;27.00;20.20;;;0.50;99.90;;;;;;5032442;28;20027;-72
2021/12/10 07:50:54;;;;;;;24.42;21.17;;;0.40;99.90;;;;;;5027845;28;20018;-73
2021/12/10 07:53:22;;;;;;;28.15;22.73;;;0.50;99.90;;;;;;5010903;28;20040;-73
2021/12/10 07:55:48;;;;;;;27.60;20.48;;;0.50;99.90;;;;;;5011102;28;20033;-73
2021/12/10 07:58:14;;;;;;;26.30;20.15;;;0.40;99.90;;;;;;5012602;28;20047;-73
2021/12/10 08:00:41;;;;;;;28.17;18.30;;;0.40;99.90;;;;;;5031645;28;20530;-73
2021/12/10 08:03:07;;;;;;;23.83;17.02;;;0.40;99.90;;;;;;5019141;28;20032;-74
2021/12/10 08:05:33;;;;;;;23.05;16.88;;;0.40;99.90;;;;;;5011078;28;20109;-73
2021/12/10 08:08:00;;;;;;;27.60;18.73;;;0.40;99.90;;;;;;5014645;28;20048;-74
2021/12/10 08:10:27;;;;;;;26.80;19.70;;;0.50;99.90;;;;;;5012300;28;20026;-73
2021/12/10 08:12:53;;;;;;;22.50;18.08;;;0.50;99.90;;;;;;5014999;28;20451;-73
2021/12/10 08:15:19;;;;;;;23.27;17.48;;;0.50;99.90;;;;;;5010718;28;20022;-72
2021/12/10 08:17:45;;;;;;;19.52;16.33;;;0.60;99.90;;;;;;5009253;28;20030;-73
2021/12/10 08:20:15;;;;;;;20.63;15.43;;;0.60;99.90;;;;;;5005283;28;20060;-73
2021/12/10 08:22:41;;;;;;;20.08;16.02;;;0.70;99.90;;;;;;5016456;28;20120;-73
2021/12/10 08:25:08;;;;;;;20.73;14.95;;;0.80;99.90;;;;;;5011868;28;20022;-72
2021/12/10 08:27:33;;;;;;;20.20;15.48;;;0.80;99.90;;;;;;5025564;28;20037;-73
2021/12/10 08:30:03;;;;;;;20.85;16.50;;;0.80;99.90;;;;;;5019524;28;20472;-73
2021/12/10 08:32:30;;;;;;;21.17;15.65;;;0.90;99.90;;;;;;5017181;28;20018;-74
2021/12/10 08:34:55;;;;;;;19.42;15.73;;;0.90;99.90;;;;;;5010525;28;20053;-73
2021/12/10 08:37:21;;;;;;;18.13;15.43;;;0.90;99.90;;;;;;5010364;28;20507;-73
2021/12/10 08:39:47;;;;;;;21.05;15.52;;;0.90;99.90;;;;;;5011597;28;20026;-72
2021/12/10 08:42:14;;;;;;;20.02;15.43;;;1.00;99.90;;;;;;5025074;28;20030;-73
2021/12/10 08:44:41;;;;;;;18.08;14.68;;;0.90;99.90;;;;;;5019119;28;20029;-73
2021/12/10 08:47:07;;;;;;;19.25;14.77;;;1.00;99.90;;;;;;5018560;28;20022;-73
2021/12/10 08:49:33;;;;;;;17.58;13.45;;;1.00;99.90;;;;;;5021336;28;20109;-71
2021/12/10 08:51:58;;;;;;;17.70;12.98;;;1.00;99.90;;;;;;5025204;28;20021;-73
2021/12/10 08:54:29;;;;;;;21.50;14.82;;;1.00;99.90;;;;;;5020407;28;20427;-72
2021/12/10 08:56:54;;;;;;;17.13;12.40;;;1.10;99.90;;;;;;5018209;28;20040;-72
2021/12/10 08:59:23;;;;;;;13.73;11.18;;;1.00;99.90;;;;;;5022231;28;20038;-73
2021/12/10 09:01:52;;;;;;;12.95;10.60;;;1.00;99.90;;;;;;5024616;28;20037;-73
2021/12/10 09:04:18;;;;;;;13.82;10.55;;;1.00;99.90;;;;;;5020142;28;20053;-72
2021/12/10 09:06:48;;;;;;;12.85;10.32;;;1.00;99.90;;;;;;5016828;28;20471;-73
2021/12/10 09:09:14;;;;;;;13.13;10.30;;;1.00;99.90;;;;;;5031483;28;20424;-72
2021/12/10 09:11:46;;;;;;;13.05;9.65;;;1.00;99.90;;;;;;5026125;28;20052;-70
2021/12/10 09:14:12;;;;;;;11.45;10.25;;;1.10;99.90;;;;;;5022825;28;20116;-72
2021/12/10 09:16:38;;;;;;;12.85;9.55;;;1.10;99.90;;;;;;5016843;28;20022;-72
2021/12/10 09:19:07;;;;;;;16.58;9.90;;;1.00;99.90;;;;;;5020028;28;20030;-72
2021/12/10 09:21:34;;;;;;;15.55;10.90;;;1.10;99.90;;;;;;5016455;28;20483;-72
2021/12/10 09:24:04;;;;;;;16.08;11.50;;;1.10;99.90;;;;;;5029609;28;20055;-73
2021/12/10 09:26:37;;;;;;;16.80;11.60;;;1.10;99.90;;;;;;5012437;28;20022;-72
2021/12/10 09:29:05;;;;;;;16.13;12.10;;;1.10;99.90;;;;;;5011554;28;20469;-72
2021/12/10 09:31:31;;;;;;;14.13;11.63;;;1.10;99.90;;;;;;5010143;28;20436;-74
2021/12/10 09:33:59;;;;;;;15.07;11.27;;;1.40;99.90;;;;;;5011161;28;20049;-75
2021/12/10 09:36:25;;;;;;;21.30;13.60;;;1.40;99.90;;;;;;5011531;28;20400;-74
2021/12/10 09:38:51;;;;;;;14.13;11.73;;;1.50;99.90;;;;;;5011388;28;20514;-73
2021/12/10 09:41:18;;;;;;;15.65;11.95;;;1.40;99.90;;;;;;5011242;28;20033;-72
2021/12/10 09:43:44;;;;;;;13.30;10.57;;;1.50;99.90;;;;;;5009899;28;20076;-73
2021/12/10 09:46:11;;;;;;;13.75;10.32;;;1.60;99.90;;;;;;5011217;28;20037;-72
2021/12/10 09:48:39;;;;;;;16.23;11.57;;;1.60;99.90;;;;;;5026737;28;20024;-73
2021/12/10 09:51:15;;;;;;;17.20;12.95;;;1.60;99.90;;;;;;5022493;28;20463;-75
2021/12/10 09:53:50;;;;;;;16.25;11.02;;;1.70;99.90;;;;;;5018906;28;20053;-73
2021/12/10 09:56:18;;;;;;;13.13;10.75;;;1.80;99.90;;;;;;5013762;28;20041;-72
2021/12/10 09:58:44;;;;;;;16.45;10.90;;;1.80;99.90;;;;;;5013762;28;20117;-75
2021/12/10 10:01:21;;;;;;;16.17;10.40;;;1.90;99.90;;;;;;5013349;28;20491;-74
2021/12/10 10:03:54;;;;;;;18.27;11.05;;;2.00;99.90;;;;;;5032066;28;20476;-73
2021/12/10 10:06:20;;;;;;;11.75;9.77;;;2.10;99.90;;;;;;5034332;28;20040;-73
2021/12/10 10:08:46;;;;;;;18.23;10.23;;;2.10;99.90;;;;;;5034315;28;20021;-73
2021/12/10 10:11:24;;;;;;;17.45;10.20;;;2.10;99.90;;;;;;5034343;28;20056;-73
2021/12/10 10:13:52;;;;;;;16.38;10.75;;;2.00;99.90;;;;;;5026045;28;20391;-72
2021/12/10 10:16:20;;;;;;;14.35;10.50;;;2.10;99.90;;;;;;5012824;28;20030;-72
2021/12/10 10:18:47;;;;;;;12.38;10.18;;;2.20;99.90;;;;;;5014436;28;20029;-72
2021/12/10 10:21:19;;;;;;;11.98;10.07;;;2.20;99.90;;;;;;5027876;28;20413;-72
2021/12/10 10:23:45;;;;;;;12.60;10.68;;;2.20;99.90;;;;;;5022374;28;20029;-73
2021/12/10 10:26:22;;;;;;;15.27;10.35;;;2.40;99.90;;;;;;5010355;28;20064;-72
2021/12/10 10:28:48;;;;;;;14.32;10.70;;;2.40;99.90;;;;;;5013451;28;20022;-73
2021/12/10 10:31:19;;;;;;;12.90;9.45;;;2.40;99.90;;;;;;5031525;28;20029;-72
2021/12/10 10:33:48;;;;;;;14.10;10.10;;;2.40;99.90;;;;;;5030364;28;20033;-73
2021/12/10 10:36:19;;;;;;;11.43;9.93;;;2.50;99.90;;;;;;5013585;28;20030;-73
2021/12/10 10:38:52;;;;;;;12.63;9.23;;;2.40;99.90;;;;;;5013876;28;20021;-73
2021/12/10 10:41:21;;;;;;;12.40;9.50;;;2.40;99.90;;;;;;5013688;28;20108;-74
2021/12/10 10:43:47;;;;;;;12.65;8.65;;;2.50;99.90;;;;;;5013582;28;20028;-73
2021/12/10 10:46:13;;;;;;;14.02;9.52;;;2.70;99.90;;;;;;5020232;28;20026;-72
2021/12/10 10:48:41;;;;;;;12.02;8.77;;;2.90;99.90;;;;;;5033632;28;20057;-72
2021/12/10 10:51:11;;;;;;;11.40;9.07;;;2.90;99.90;;;;;;5027258;28;20024;-72
2021/12/10 10:53:50;;;;;;;12.38;8.52;;;2.90;99.90;;;;;;5033316;28;20064;-72
2021/12/10 10:56:27;;;;;;;11.70;8.43;;;2.70;99.90;;;;;;5033288;28;20388;-73
2021/12/10 10:58:58;;;;;;;11.75;8.38;;;2.80;99.90;;;;;;5020348;28;20022;-72
2021/12/10 11:01:39;;;;;;;12.32;8.13;;;2.70;99.90;;;;;;5023954;28;20031;-72
2021/12/10 11:04:17;;;;;;;10.30;8.15;;;2.80;99.90;;;;;;5018090;28;20415;-74
2021/12/10 11:06:48;;;;;;;11.60;7.90;;;2.80;99.90;;;;;;5015925;28;20465;-73
2021/12/10 11:09:18;;;;;;;11.88;8.00;;;3.00;99.90;;;;;;5020595;28;20538;-73
2021/12/10 11:11:52;;;;;;;13.15;8.10;;;3.00;99.90;;;;;;5018692;28;20025;-73
2021/12/10 11:14:32;;;;;;;14.20;9.35;;;2.80;99.90;;;;;;5025818;28;20100;-73
2021/12/10 11:17:31;;;;;;;13.05;9.30;;;2.70;99.90;;;;;;5024936;28;20117;-74
2021/12/10 11:20:09;;;;;;;12.63;8.63;;;2.90;99.90;;;;;;5022819;28;20072;-74
2021/12/10 11:22:35;;;;;;;11.80;8.45;;;2.70;99.90;;;;;;5023462;28;20034;-71
2021/12/10 11:25:10;;;;;;;13.98;9.90;;;2.70;99.90;;;;;;5021766;28;20071;-73
2021/12/10 11:27:40;;;;;;;12.82;8.18;;;2.70;99.90;;;;;;5022197;28;20026;-73
2021/12/10 11:30:16;;;;;;;10.63;7.80;;;2.70;99.90;;;;;;5024521;28;20021;-73
2021/12/10 11:33:03;;;;;;;11.48;8.10;;;2.70;99.90;;;;;;5022371;28;20093;-73
2021/12/10 11:35:37;;;;;;;10.90;7.82;;;2.70;99.90;;;;;;5016898;28;20071;-73
2021/12/10 11:38:11;;;;;;;12.27;7.82;;;2.70;99.90;;;;;;5024507;28;20021;-72
2021/12/10 11:40:51;;;;;;;10.10;7.50;;;2.60;99.90;;;;;;5022659;28;20033;-74
2021/12/10 11:49:07;;;;;;;13.20;8.20;;;2.40;99.90;;;;;;5019699;28;20025;-73
2021/12/10 11:51:41;;;;;;;9.80;8.27;;;2.50;99.90;;;;;;5028052;28;20467;-72
2021/12/10 11:54:36;;;;;;;14.27;8.27;;;2.40;99.90;;;;;;5006069;28;20029;-72
2021/12/10 11:57:25;;;;;;;11.85;8.88;;;2.40;99.90;;;;;;5022449;28;20030;-72
2021/12/10 11:59:52;;;;;;;12.43;8.48;;;2.30;99.90;;;;;;5016764;28;20045;-72
2021/12/10 12:02:21;;;;;;;12.52;9.05;;;2.30;99.90;;;;;;5018279;28;20057;-73
2021/12/10 12:05:00;;;;;;;11.85;9.05;;;2.40;99.90;;;;;;5017095;28;20025;-72
2021/12/10 12:07:34;;;;;;;11.15;8.77;;;2.40;99.90;;;;;;5027117;28;20025;-72
2021/12/10 12:10:06;;;;;;;9.68;8.68;;;2.40;99.90;;;;;;5019463;28;20014;-72
2021/12/10 12:12:44;;;;;;;9.90;8.90;;;2.30;99.90;;;;;;5019686;28;20033;-73
2021/12/10 12:15:34;;;;;;;12.82;9.73;;;2.30;99.90;;;;;;5011551;28;20033;-72
2021/12/10 12:18:16;;;;;;;10.73;8.60;;;2.30;99.90;;;;;;5010919;28;20037;-72
2021/12/10 12:20:48;;;;;;;12.65;9.00;;;2.40;99.90;;;;;;5009327;28;20052;-72
2021/12/10 12:26:15;;;;;;;11.15;8.68;;;2.20;99.90;;;;;;5010786;28;20037;-73
2021/12/10 12:28:48;;;;;;;9.48;8.40;;;2.30;99.90;;;;;;5007352;28;20026;-72
2021/12/10 12:31:28;;;;;;;11.77;9.75;;;2.20;99.90;;;;;;5010926;28;20094;-71
2021/12/10 12:34:14;;;;;;;10.50;8.18;;;2.20;99.90;;;;;;5011507;28;20064;-71
2021/12/10 12:36:53;;;;;;;9.43;8.48;;;2.30;99.90;;;;;;5015842;28;20025;-72
2021/12/10 12:39:31;;;;;;;10.70;8.50;;;2.20;99.90;;;;;;5021859;28;20030;-70
2021/12/10 12:41:59;;;;;;;10.77;8.38;;;2.00;99.90;;;;;;5019345;28;20040;-71
2021/12/10 12:44:34;;;;;;;9.70;8.20;;;1.90;99.90;;;;;;5012836;28;20431;-71
2021/12/10 12:47:14;;;;;;;11.47;8.43;;;2.10;99.90;;;;;;5013220;28;20392;-71
2021/12/10 12:49:48;;;;;;;10.77;8.32;;;2.00;99.90;;;;;;5012846;28;20291;-72
2021/12/10 12:52:14;;;;;;;10.88;8.88;;;2.00;99.90;;;;;;5020096;28;20018;-71
2021/12/10 12:54:59;;;;;;;12.38;9.35;;;2.10;99.90;;;;;;5015506;28;20550;-71
2021/12/10 12:57:55;;;;;;;12.48;10.10;;;2.00;99.90;;;;;;5010719;28;20034;-71
2021/12/10 13:00:32;;;;;;;14.70;11.85;;;2.00;99.90;;;;;;5003709;28;20404;-71
2021/12/10 13:03:14;;;;;;;13.75;9.73;;;1.90;99.90;;;;;;5012405;28;20087;-72
2021/12/10 13:05:55;;;;;;;10.30;8.98;;;2.00;99.90;;;;;;5009554;28;20053;-71
2021/12/10 13:08:26;;;;;;;11.80;9.55;;;2.00;99.90;;;;;;5020577;28;20717;-71
2021/12/10 13:11:07;;;;;;;11.25;9.50;;;2.00;99.90;;;;;;5018654;28;20096;-71
2021/12/10 13:13:42;;;;;;;11.38;9.05;;;2.00;99.90;;;;;;5018479;28;20507;-71